createdAt,value
2018-12-17T00:01:42.158Z,100940.48
2018-12-17T00:06:36.849Z,100937.03
2018-12-17T00:11:31.990Z,100935.30
2018-12-17T00:16:26.771Z,100936.62
2018-12-17T00:21:21.463Z,100938.30
2018-12-17T00:26:16.156Z,100936.11
2018-12-17T00:31:10.880Z,100928.63
2018-12-17T00:36:05.664Z,100927.70
2018-12-17T00:41:00.355Z,100928.23
2018-12-17T00:45:55.657Z,100928.66
2018-12-17T00:50:50.643Z,100926.02
2018-12-17T00:55:45.728Z,100924.28
2018-12-17T01:00:40.820Z,100933.79
2018-12-17T01:05:35.971Z,100936.31
2018-12-17T01:10:30.979Z,100935.88
2018-12-17T01:15:25.888Z,100934.58
2018-12-17T01:25:25.577Z,100937.19
2018-12-17T01:30:20.257Z,100938.92
2018-12-17T01:35:15.635Z,100941.16
2018-12-17T01:40:10.938Z,100939.04
2018-12-17T01:45:06.990Z,100937.27
2018-12-17T01:50:01.985Z,100947.16
2018-12-17T01:54:57.157Z,100942.66
2018-12-17T01:59:52.366Z,100929.50
2018-12-17T02:04:47.270Z,100927.67
2018-12-17T02:09:42.148Z,100933.33
2018-12-17T02:14:37.035Z,100937.70
2018-12-17T02:19:31.830Z,100952.49
2018-12-17T02:24:26.486Z,100968.09
2018-12-17T02:29:21.195Z,100971.16
2018-12-17T02:34:15.870Z,100967.77
2018-12-17T02:39:10.548Z,100987.43
2018-12-17T02:44:05.880Z,100989.63
2018-12-17T02:49:00.574Z,100992.73
2018-12-17T02:53:55.250Z,100983.59
2018-12-17T02:58:49.934Z,100980.99
2018-12-17T03:03:44.602Z,100989.22
2018-12-17T03:08:39.276Z,100996.59
2018-12-17T03:13:33.942Z,100987.38
2018-12-17T03:18:28.631Z,100991.63
2018-12-17T03:23:23.335Z,100998.10
2018-12-17T03:28:18.038Z,100997.61
2018-12-17T03:33:12.829Z,101004.55
2018-12-17T03:38:07.737Z,101010.14
2018-12-17T03:43:02.422Z,101000.14
2018-12-17T03:47:57.120Z,101014.05
2018-12-17T03:52:51.772Z,101009.70
2018-12-17T03:57:46.415Z,101007.88
2018-12-17T04:02:41.201Z,101016.95
2018-12-17T04:07:35.882Z,101017.37
2018-12-17T04:12:30.591Z,101022.84
2018-12-17T04:17:25.265Z,101014.37
2018-12-17T04:22:19.941Z,101012.38
2018-12-17T04:27:14.625Z,101016.14
2018-12-17T04:32:09.342Z,101007.70
2018-12-17T04:37:04.084Z,100993.58
2018-12-17T04:41:58.772Z,101007.28
2018-12-17T04:46:53.435Z,101011.80
2018-12-17T04:51:48.111Z,101025.09
2018-12-17T04:56:44.476Z,101034.91
2018-12-17T05:01:39.515Z,101035.14
2018-12-17T05:06:34.170Z,101031.36
2018-12-17T05:11:28.857Z,101034.23
2018-12-17T05:16:23.519Z,101040.95
2018-12-17T05:21:18.241Z,101050.79
2018-12-17T05:26:12.940Z,101051.08
2018-12-17T05:31:07.593Z,101057.98
2018-12-17T05:36:02.647Z,101062.66
2018-12-17T05:40:57.663Z,101066.05
2018-12-17T05:45:52.367Z,101069.89
2018-12-17T05:50:47.118Z,101077.66
2018-12-17T05:55:41.793Z,101077.95
2018-12-17T06:00:36.491Z,101076.08
2018-12-17T06:05:31.139Z,101086.80
2018-12-17T06:10:25.795Z,101095.05
2018-12-17T06:15:20.499Z,101095.81
2018-12-17T06:20:15.357Z,101102.31
2018-12-17T06:25:10.092Z,101105.33
2018-12-17T06:30:04.982Z,101110.48
2018-12-17T06:34:59.681Z,101104.30
2018-12-17T06:39:54.323Z,101112.55
2018-12-17T06:44:49.027Z,101115.05
2018-12-17T06:49:43.737Z,101121.52
2018-12-17T06:54:38.788Z,101127.51
2018-12-17T06:59:42.498Z,101133.98
2018-12-17T07:04:33.253Z,101145.73
2018-12-17T07:09:28.057Z,101159.59
2018-12-17T07:14:22.797Z,101160.38
2018-12-17T07:19:17.531Z,101162.87
2018-12-17T07:24:12.290Z,101164.62
2018-12-17T07:29:06.977Z,101165.42
2018-12-17T07:34:01.767Z,101172.80
2018-12-17T07:38:56.478Z,101178.40
2018-12-17T07:43:51.202Z,101193.09
2018-12-17T07:48:45.941Z,101196.86
2018-12-17T07:53:40.612Z,101204.52
2018-12-17T07:58:35.299Z,101204.00
2018-12-17T08:03:29.978Z,101208.24
2018-12-17T08:08:24.705Z,101220.31
2018-12-17T08:13:20.169Z,101224.47
2018-12-17T08:18:24.744Z,101225.48
2018-12-17T08:23:19.556Z,101228.86
2018-12-17T08:28:14.233Z,101236.50
2018-12-17T08:33:08.928Z,101240.58
2018-12-17T08:38:03.665Z,101253.91
2018-12-17T08:42:58.400Z,101256.27
2018-12-17T08:47:53.164Z,101268.65
2018-12-17T08:52:47.861Z,101272.71
2018-12-17T08:57:42.541Z,101277.73
2018-12-17T09:02:37.245Z,101284.06
2018-12-17T09:07:31.912Z,101283.92
2018-12-17T09:12:26.587Z,101283.01
2018-12-17T09:17:21.291Z,101293.98
2018-12-17T09:22:15.964Z,101304.50
2018-12-17T09:27:10.640Z,101307.52
2018-12-17T09:32:05.665Z,101313.70
2018-12-17T09:37:00.519Z,101321.92
2018-12-17T09:41:55.375Z,101326.60
2018-12-17T09:46:50.201Z,101341.17
2018-12-17T09:51:44.909Z,101339.00
2018-12-17T09:56:39.622Z,101344.31
2018-12-17T10:01:34.399Z,101344.52
2018-12-17T10:06:29.230Z,101354.83
2018-12-17T10:11:23.966Z,101351.57
2018-12-17T10:16:18.708Z,101356.57
2018-12-17T10:21:13.596Z,101351.36
2018-12-17T10:26:09.033Z,101352.70
2018-12-17T10:31:03.727Z,101349.92
2018-12-17T10:35:58.403Z,101354.65
2018-12-17T10:40:53.070Z,101345.87
2018-12-17T10:45:47.737Z,101345.84
2018-12-17T10:50:42.528Z,101341.31
2018-12-17T10:55:37.222Z,101342.66
2018-12-17T11:00:39.477Z,101346.94
2018-12-17T11:05:35.504Z,101342.88
2018-12-17T11:10:30.155Z,101348.91
2018-12-17T11:15:24.871Z,101349.42
2018-12-17T11:20:19.601Z,101351.59
2018-12-17T11:25:14.270Z,101353.78
2018-12-17T11:30:12.874Z,101355.77
2018-12-17T11:35:07.949Z,101361.25
2018-12-17T11:40:02.679Z,101366.70
2018-12-17T11:44:57.439Z,101355.45
2018-12-17T11:49:52.135Z,101356.55
2018-12-17T11:54:47.033Z,101353.55
2018-12-17T11:59:41.905Z,101355.23
2018-12-17T12:04:36.587Z,101354.27
2018-12-17T12:09:33.343Z,101354.83
2018-12-17T12:14:28.177Z,101350.39
2018-12-17T12:19:22.972Z,101365.81
2018-12-17T12:24:17.712Z,101369.95
2018-12-17T12:29:12.456Z,101378.70
2018-12-17T12:34:07.151Z,101378.28
2018-12-17T12:39:01.825Z,101384.28
2018-12-17T12:43:56.513Z,101393.06
2018-12-17T12:48:51.336Z,101396.66
2018-12-17T12:53:46.838Z,101414.66
2018-12-17T13:03:41.771Z,101422.31
2018-12-17T13:08:37.295Z,101432.16
2018-12-17T13:13:32.208Z,101439.45
2018-12-17T13:18:27.591Z,101452.71
2018-12-17T13:23:23.304Z,101455.73
2018-12-17T13:28:18.565Z,101458.83
2018-12-17T13:33:13.263Z,101461.20
2018-12-17T13:38:08.070Z,101469.44
2018-12-17T13:43:02.756Z,101467.48
2018-12-17T13:47:57.459Z,101482.70
2018-12-17T13:52:54.123Z,101482.09
2018-12-17T13:57:48.778Z,101484.58
2018-12-17T14:02:44.196Z,101483.44
2018-12-17T14:07:38.892Z,101481.69
2018-12-17T14:12:34.437Z,101484.16
2018-12-17T14:17:34.494Z,101496.61
2018-12-17T14:22:29.925Z,101498.92
2018-12-17T14:27:25.435Z,101511.98
2018-12-17T14:32:20.174Z,101516.08
2018-12-17T14:37:15.723Z,101534.20
2018-12-17T14:42:10.457Z,101548.44
2018-12-17T14:47:06.151Z,101566.61
2018-12-17T14:52:03.269Z,101571.08
2018-12-17T14:56:58.503Z,101585.70
2018-12-17T15:01:53.225Z,101593.28
2018-12-17T15:06:48.244Z,101596.31
2018-12-17T15:11:43.457Z,101597.19
2018-12-17T15:16:39.099Z,101608.62
2018-12-17T15:21:34.163Z,101617.91
2018-12-17T15:26:29.610Z,101635.17
2018-12-17T15:31:24.912Z,101639.35
2018-12-17T15:36:19.906Z,101641.73
2018-12-17T15:41:15.173Z,101656.06
2018-12-17T15:46:10.803Z,101672.12
2018-12-17T15:51:05.863Z,101683.46
2018-12-17T15:56:01.517Z,101703.52
2018-12-17T16:00:56.229Z,101713.44
2018-12-17T16:05:50.904Z,101721.05
2018-12-17T16:10:46.719Z,101724.81
2018-12-17T16:15:42.570Z,101734.63
2018-12-17T16:20:39.580Z,101740.48
2018-12-17T16:25:35.657Z,101753.37
2018-12-17T16:30:30.404Z,101761.22
2018-12-17T16:35:26.408Z,101773.34
2018-12-17T16:40:21.610Z,101770.13
2018-12-17T16:45:16.410Z,101779.70
2018-12-17T16:50:11.106Z,101785.02
2018-12-17T16:55:05.964Z,101776.03
2018-12-17T17:00:00.734Z,101780.84
2018-12-17T17:04:55.398Z,101783.50
2018-12-17T17:09:50.046Z,101790.78
2018-12-17T17:14:44.732Z,101790.09
2018-12-17T17:19:39.519Z,101797.60
2018-12-17T17:24:34.277Z,101792.94
2018-12-17T17:29:28.971Z,101792.11
2018-12-17T17:34:23.621Z,101797.95
2018-12-17T17:39:18.303Z,101810.80
2018-12-17T17:44:13.157Z,101823.17
2018-12-17T17:49:08.023Z,101821.02
2018-12-17T17:54:02.919Z,101828.86
2018-12-17T17:58:57.612Z,101834.02
2018-12-17T18:03:52.340Z,101835.23
2018-12-17T18:08:47.091Z,101849.47
2018-12-17T18:13:41.815Z,101853.91
2018-12-17T18:18:36.495Z,101857.88
2018-12-17T18:23:31.277Z,101863.16
2018-12-17T18:28:25.993Z,101877.30
2018-12-17T18:33:20.664Z,101885.20
2018-12-17T18:38:15.394Z,101893.16
2018-12-17T18:43:10.159Z,101891.00
2018-12-17T18:48:04.852Z,101892.80
2018-12-17T18:53:00.200Z,101897.72
2018-12-17T18:57:55.949Z,101907.48
2018-12-17T19:02:52.025Z,101920.97
2018-12-17T19:07:47.432Z,101911.29
2018-12-17T19:12:43.426Z,101926.84
2018-12-17T19:17:38.419Z,101923.30
2018-12-17T19:22:33.238Z,101934.11
2018-12-17T19:27:28.092Z,101940.20
2018-12-17T19:32:23.081Z,101947.53
2018-12-17T19:37:18.275Z,101956.53
2018-12-17T19:42:13.532Z,101956.50
2018-12-17T19:47:08.134Z,101955.19
2018-12-17T19:52:02.998Z,101960.79
2018-12-17T19:56:57.859Z,101966.45
2018-12-17T20:01:52.844Z,101958.59
2018-12-17T20:06:47.943Z,101959.20
2018-12-17T20:11:43.073Z,101959.98
2018-12-17T20:16:38.187Z,101958.16
2018-12-17T20:21:33.249Z,101965.08
2018-12-17T20:26:28.241Z,101968.05
2018-12-17T20:31:23.443Z,101974.00
2018-12-17T20:36:19.144Z,101976.45
2018-12-17T20:41:14.383Z,101991.92
2018-12-17T20:46:09.063Z,101996.72
2018-12-17T20:51:03.738Z,102000.13
2018-12-17T20:55:58.550Z,102014.43
2018-12-17T21:00:54.036Z,101998.55
2018-12-17T21:05:48.738Z,102000.72
2018-12-17T21:10:43.680Z,102003.47
2018-12-17T21:15:39.121Z,102001.86
2018-12-17T21:20:33.838Z,102012.48
2018-12-17T21:25:30.665Z,102014.35
2018-12-17T21:30:26.649Z,102016.19
2018-12-17T21:35:21.860Z,102022.86
2018-12-17T21:40:17.450Z,102019.91
2018-12-17T21:45:13.604Z,102026.97
2018-12-17T21:50:08.902Z,102024.86
2018-12-17T21:55:06.140Z,102026.09
2018-12-17T22:00:00.924Z,102034.39
2018-12-17T22:04:55.680Z,102032.31
2018-12-17T22:09:50.405Z,102041.56
2018-12-17T22:14:45.084Z,102042.92
2018-12-17T22:19:39.759Z,102046.48
2018-12-17T22:24:34.456Z,102050.03
2018-12-17T22:29:29.683Z,102056.67
2018-12-17T22:34:24.581Z,102062.44
2018-12-17T22:39:19.524Z,102062.45
2018-12-17T22:44:14.227Z,102064.28
2018-12-17T22:49:08.893Z,102066.97
2018-12-17T22:54:03.611Z,102066.14
2018-12-17T22:58:58.297Z,102065.74
2018-12-17T23:03:53.015Z,102064.48
2018-12-17T23:09:03.943Z,102056.98
2018-12-17T23:14:15.243Z,102056.83
2018-12-17T23:19:08.589Z,102064.07
2018-12-17T23:24:03.328Z,102059.98
2018-12-17T23:28:58.014Z,102053.87
2018-12-17T23:33:52.705Z,102053.39
2018-12-17T23:38:47.378Z,102045.07
2018-12-17T23:43:42.089Z,102042.79
2018-12-17T23:48:36.803Z,102044.73
2018-12-17T23:53:31.497Z,102038.35
2018-12-17T23:58:26.140Z,102036.94
